createdAt,value
2022-09-27T00:01:05.877Z,10.26
2022-09-27T00:03:34.338Z,10.19
2022-09-27T00:06:05.460Z,10.20
2022-09-27T00:08:33.749Z,10.20
2022-09-27T00:11:03.250Z,10.29
2022-09-27T00:13:31.502Z,10.19
2022-09-27T00:16:00.738Z,10.21
2022-09-27T00:18:28.820Z,10.38
2022-09-27T00:20:56.609Z,10.25
2022-09-27T00:23:26.084Z,10.17
2022-09-27T00:25:57.896Z,10.12
2022-09-27T00:28:25.826Z,10.10
2022-09-27T00:30:54.445Z,9.97
2022-09-27T00:33:22.446Z,9.92
2022-09-27T00:35:50.466Z,9.89
2022-09-27T00:38:18.380Z,9.91
2022-09-27T00:40:48.624Z,9.92
2022-09-27T00:43:18.958Z,9.99
2022-09-27T00:45:51.256Z,9.90
2022-09-27T00:48:24.275Z,9.99
2022-09-27T00:50:55.260Z,9.90
2022-09-27T00:53:28.337Z,9.91
2022-09-27T00:56:01.368Z,9.89
2022-09-27T00:58:32.660Z,9.85
2022-09-27T01:01:04.025Z,9.91
2022-09-27T01:03:40.092Z,9.81
2022-09-27T01:06:10.123Z,9.84
2022-09-27T01:08:37.932Z,9.61
2022-09-27T01:11:15.816Z,9.65
2022-09-27T01:14:00.394Z,9.94
2022-09-27T01:16:34.562Z,9.89
2022-09-27T01:19:15.463Z,9.75
2022-09-27T01:21:53.256Z,9.89
2022-09-27T01:24:44.856Z,9.81
2022-09-27T01:27:42.755Z,9.86
2022-09-27T01:30:32.413Z,9.91
2022-09-27T01:33:12.229Z,9.86
2022-09-27T01:35:54.287Z,9.88
2022-09-27T01:38:27.261Z,9.91
2022-09-27T01:41:05.176Z,9.87
2022-09-27T01:43:47.961Z,9.81
2022-09-27T01:46:26.877Z,9.79
2022-09-27T01:49:18.662Z,9.81
2022-09-27T01:51:53.252Z,9.87
2022-09-27T01:54:28.069Z,9.79
2022-09-27T01:57:31.770Z,9.74
2022-09-27T02:00:04.079Z,9.69
2022-09-27T02:02:50.122Z,9.59
2022-09-27T02:05:39.952Z,9.70
2022-09-27T02:08:29.653Z,9.34
2022-09-27T02:11:02.617Z,9.42
2022-09-27T02:13:39.382Z,9.37
2022-09-27T02:16:33.428Z,9.42
2022-09-27T02:19:11.010Z,9.37
2022-09-27T02:21:44.988Z,9.37
2022-09-27T02:24:18.542Z,9.39
2022-09-27T02:26:52.517Z,9.37
2022-09-27T02:29:25.437Z,9.32
2022-09-27T02:31:55.620Z,9.38
2022-09-27T02:34:29.991Z,9.28
2022-09-27T02:36:58.267Z,9.24
2022-09-27T02:39:27.029Z,9.31
2022-09-27T02:42:02.026Z,9.21
2022-09-27T02:44:31.260Z,9.21
2022-09-27T02:47:20.868Z,9.17
2022-09-27T02:50:01.525Z,9.22
2022-09-27T02:52:56.902Z,9.17
2022-09-27T02:55:44.566Z,9.11
2022-09-27T02:58:45.002Z,9.13
2022-09-27T03:01:40.006Z,9.11
2022-09-27T03:04:18.620Z,9.15
2022-09-27T03:06:49.141Z,9.10
2022-09-27T03:09:20.558Z,9.08
2022-09-27T03:11:49.112Z,9.18
2022-09-27T03:14:17.283Z,9.11
2022-09-27T03:16:57.651Z,9.12
2022-09-27T03:19:44.204Z,9.10
2022-09-27T03:22:38.122Z,9.14
2022-09-27T03:25:06.833Z,9.15
2022-09-27T03:27:34.632Z,9.21
2022-09-27T03:30:02.434Z,9.18
2022-09-27T03:32:30.917Z,9.17
2022-09-27T03:35:17.247Z,9.20
2022-09-27T03:37:47.172Z,9.25
2022-09-27T03:40:15.221Z,9.31
2022-09-27T03:42:47.503Z,9.30
2022-09-27T03:45:17.841Z,9.29
2022-09-27T03:47:46.095Z,9.27
2022-09-27T03:50:14.027Z,9.28
2022-09-27T03:52:43.800Z,9.34
2022-09-27T03:55:13.899Z,9.27
2022-09-27T03:57:46.084Z,9.31
2022-09-27T04:00:15.801Z,9.31
2022-09-27T04:02:43.925Z,9.33
2022-09-27T04:05:37.742Z,9.31
2022-09-27T04:08:13.515Z,9.33
2022-09-27T04:10:44.305Z,9.27
2022-09-27T04:13:12.196Z,9.30
2022-09-27T04:15:52.036Z,9.25
2022-09-27T04:18:39.037Z,9.30
2022-09-27T04:21:06.998Z,9.27
2022-09-27T04:23:36.598Z,9.24
2022-09-27T04:26:08.732Z,9.25
2022-09-27T04:28:54.428Z,9.23
2022-09-27T04:31:23.177Z,9.23
2022-09-27T04:34:14.393Z,9.36
2022-09-27T04:36:41.526Z,9.32
2022-09-27T04:39:16.153Z,9.24
2022-09-27T04:41:47.109Z,9.26
2022-09-27T04:44:15.025Z,9.23
2022-09-27T04:46:46.429Z,9.12
2022-09-27T04:49:17.583Z,9.06
2022-09-27T04:51:46.097Z,9.03
2022-09-27T04:54:16.125Z,9.01
2022-09-27T04:56:53.876Z,9.06
2022-09-27T04:59:22.219Z,9.14
2022-09-27T05:01:50.462Z,9.17
2022-09-27T05:04:18.337Z,9.13
2022-09-27T05:06:53.705Z,9.13
2022-09-27T05:09:30.202Z,9.13
2022-09-27T05:12:01.782Z,9.14
2022-09-27T05:14:48.317Z,9.24
2022-09-27T05:17:16.258Z,9.11
2022-09-27T05:19:50.174Z,9.27
2022-09-27T05:22:29.191Z,9.12
2022-09-27T05:24:57.229Z,9.00
2022-09-27T05:27:33.563Z,9.02
2022-09-27T05:30:01.967Z,9.08
2022-09-27T05:32:45.481Z,9.15
2022-09-27T05:35:53.071Z,9.03
2022-09-27T05:38:22.463Z,9.00
2022-09-27T05:40:52.078Z,9.05
2022-09-27T05:43:21.629Z,9.01
2022-09-27T05:45:52.916Z,9.03
2022-09-27T05:48:22.154Z,9.01
2022-09-27T05:51:10.507Z,9.06
2022-09-27T05:53:40.525Z,9.03
2022-09-27T05:56:14.822Z,9.09
2022-09-27T05:59:13.274Z,9.15
2022-09-27T06:02:19.485Z,9.22
2022-09-27T06:05:07.212Z,9.23
2022-09-27T06:07:54.209Z,9.32
2022-09-27T06:10:27.911Z,9.06
2022-09-27T06:13:02.243Z,9.17
2022-09-27T06:15:40.227Z,9.21
2022-09-27T06:18:11.016Z,9.16
2022-09-27T06:20:41.400Z,9.07
2022-09-27T06:23:10.786Z,9.26
2022-09-27T06:25:39.641Z,9.19
2022-09-27T06:28:27.584Z,9.12
2022-09-27T06:31:00.510Z,9.12
2022-09-27T06:33:43.944Z,9.08
2022-09-27T06:36:31.494Z,9.16
2022-09-27T06:39:01.633Z,9.00
2022-09-27T06:41:35.935Z,9.09
2022-09-27T06:44:13.143Z,9.13
2022-09-27T06:47:01.226Z,9.11
2022-09-27T06:49:45.225Z,9.08
2022-09-27T06:52:18.475Z,8.98
2022-09-27T06:54:46.651Z,9.02
2022-09-27T06:57:35.213Z,8.94
2022-09-27T07:00:21.026Z,8.83
2022-09-27T07:03:36.490Z,8.89
2022-09-27T07:06:37.509Z,8.91
2022-09-27T07:09:23.960Z,8.93
2022-09-27T07:11:54.669Z,8.92
2022-09-27T07:14:22.732Z,9.00
2022-09-27T07:16:53.072Z,8.81
2022-09-27T07:19:22.589Z,8.75
2022-09-27T07:21:52.539Z,8.55
2022-09-27T07:24:20.702Z,8.60
2022-09-27T07:26:50.972Z,8.47
2022-09-27T07:29:21.854Z,8.58
2022-09-27T07:31:52.362Z,8.55
2022-09-27T07:34:20.459Z,8.67
2022-09-27T07:36:49.727Z,8.62
2022-09-27T07:39:17.785Z,8.74
2022-09-27T07:41:45.777Z,8.69
2022-09-27T07:44:16.215Z,8.82
2022-09-27T07:47:00.623Z,8.93
2022-09-27T07:49:48.410Z,8.81
2022-09-27T07:52:31.712Z,8.99
2022-09-27T07:55:19.001Z,8.95
2022-09-27T07:58:09.282Z,9.12
2022-09-27T08:00:39.273Z,9.02
2022-09-27T08:03:07.995Z,9.19
2022-09-27T08:05:36.808Z,9.27
2022-09-27T08:08:06.622Z,9.18
2022-09-27T08:10:36.594Z,9.45
2022-09-27T08:13:06.023Z,9.40
2022-09-27T08:15:36.932Z,9.41
2022-09-27T08:18:05.169Z,9.51
2022-09-27T08:20:51.613Z,9.99
2022-09-27T08:23:39.332Z,9.90
2022-09-27T08:26:25.930Z,9.72
2022-09-27T08:29:12.875Z,9.73
2022-09-27T08:31:45.074Z,9.78
2022-09-27T08:34:13.171Z,9.82
2022-09-27T08:36:44.635Z,9.80
2022-09-27T08:39:14.198Z,9.51
2022-09-27T08:41:51.620Z,9.52
2022-09-27T08:44:30.772Z,9.62
2022-09-27T08:47:16.573Z,9.41
2022-09-27T08:49:51.561Z,9.57
2022-09-27T08:52:23.897Z,9.58
2022-09-27T08:54:53.608Z,9.64
2022-09-27T08:57:24.757Z,9.71
2022-09-27T09:00:02.040Z,10.09
2022-09-27T09:02:32.108Z,9.82
2022-09-27T09:05:04.478Z,9.66
2022-09-27T09:07:53.612Z,9.27
2022-09-27T09:10:55.313Z,9.19
2022-09-27T09:13:40.811Z,9.14
2022-09-27T09:16:19.387Z,9.13
2022-09-27T09:19:06.222Z,9.38
2022-09-27T09:22:07.241Z,9.78
2022-09-27T09:24:47.492Z,9.67
2022-09-27T09:27:26.551Z,9.96
2022-09-27T09:30:13.077Z,10.00
2022-09-27T09:32:56.192Z,9.99
2022-09-27T09:35:30.221Z,9.96
2022-09-27T09:38:04.309Z,10.28
2022-09-27T09:40:42.971Z,10.26
2022-09-27T09:43:17.897Z,10.20
2022-09-27T09:45:49.748Z,10.22
2022-09-27T09:48:25.471Z,10.38
2022-09-27T09:50:57.417Z,10.49
2022-09-27T09:53:36.095Z,10.16
2022-09-27T09:56:12.539Z,10.01
2022-09-27T09:58:48.151Z,9.76
2022-09-27T10:01:22.967Z,9.78
2022-09-27T10:03:51.026Z,9.86
2022-09-27T10:06:20.347Z,9.97
2022-09-27T10:08:50.010Z,10.14
2022-09-27T10:11:37.476Z,10.39
2022-09-27T10:14:14.865Z,10.70
2022-09-27T10:16:48.682Z,10.77
2022-09-27T10:19:19.502Z,10.65
2022-09-27T10:21:52.006Z,10.58
2022-09-27T10:24:21.932Z,10.73
2022-09-27T10:27:06.217Z,10.68
2022-09-27T10:29:39.820Z,10.71
2022-09-27T10:32:27.159Z,10.68
2022-09-27T10:35:32.725Z,10.36
2022-09-27T10:38:24.451Z,10.06
2022-09-27T10:40:59.091Z,9.80
2022-09-27T10:43:33.881Z,9.85
2022-09-27T10:46:35.051Z,9.88
2022-09-27T10:49:26.509Z,9.89
2022-09-27T10:51:56.842Z,9.92
2022-09-27T10:54:28.518Z,9.86
2022-09-27T10:56:59.467Z,9.62
2022-09-27T10:59:31.706Z,9.64
2022-09-27T11:02:02.062Z,9.78
2022-09-27T11:04:42.222Z,9.99
2022-09-27T11:07:20.112Z,9.95
2022-09-27T11:10:03.122Z,9.78
2022-09-27T11:12:35.466Z,9.68
2022-09-27T11:15:06.072Z,9.84
2022-09-27T11:17:46.749Z,9.69
2022-09-27T11:20:20.750Z,9.61
2022-09-27T11:23:27.073Z,9.76
2022-09-27T11:26:16.021Z,9.60
2022-09-27T11:28:53.953Z,9.31
2022-09-27T11:31:50.526Z,9.20
2022-09-27T11:34:36.222Z,8.90
2022-09-27T11:37:17.591Z,8.48
2022-09-27T11:40:04.394Z,8.40
2022-09-27T11:43:18.621Z,8.13
2022-09-27T11:46:15.391Z,8.05
2022-09-27T11:49:06.528Z,8.04
2022-09-27T11:52:05.077Z,7.75
2022-09-27T11:54:54.744Z,7.74
2022-09-27T11:57:28.681Z,7.37
2022-09-27T12:00:10.839Z,7.47
2022-09-27T12:03:10.667Z,7.26
2022-09-27T12:05:58.397Z,7.27
2022-09-27T12:08:39.696Z,7.37
2022-09-27T12:11:15.412Z,7.47
2022-09-27T12:13:48.580Z,7.59
2022-09-27T12:16:20.341Z,7.79
2022-09-27T12:18:51.774Z,7.96
2022-09-27T12:21:36.333Z,7.83
2022-09-27T12:24:05.988Z,8.04
2022-09-27T12:26:42.004Z,8.09
2022-09-27T12:29:15.465Z,8.15
2022-09-27T12:31:51.764Z,8.22
2022-09-27T12:34:23.833Z,8.01
2022-09-27T12:37:00.491Z,8.22
2022-09-27T12:39:42.282Z,8.18
2022-09-27T12:42:25.194Z,8.20
2022-09-27T12:44:58.894Z,8.10
2022-09-27T12:47:49.622Z,8.24
2022-09-27T12:50:30.199Z,8.07
2022-09-27T12:53:05.370Z,8.00
2022-09-27T12:55:59.578Z,7.90
2022-09-27T12:59:10.333Z,7.88
2022-09-27T13:01:58.283Z,7.80
2022-09-27T13:04:43.476Z,7.69
2022-09-27T13:07:27.298Z,7.55
2022-09-27T13:10:17.103Z,7.54
2022-09-27T13:12:54.607Z,7.67
2022-09-27T13:15:28.963Z,7.80
2022-09-27T13:17:59.601Z,7.81
2022-09-27T13:20:49.493Z,7.99
2022-09-27T13:24:03.648Z,8.05
2022-09-27T13:26:53.158Z,8.20
2022-09-27T13:29:29.011Z,8.19
2022-09-27T13:32:12.535Z,8.36
2022-09-27T13:35:19.936Z,8.26
2022-09-27T13:37:56.809Z,8.51
2022-09-27T13:40:32.818Z,8.42
2022-09-27T13:43:44.310Z,8.70
2022-09-27T13:46:29.499Z,8.61
2022-09-27T13:49:00.803Z,8.66
2022-09-27T13:51:50.303Z,8.54
2022-09-27T13:54:44.267Z,8.48
2022-09-27T13:57:43.446Z,8.71
2022-09-27T14:00:19.024Z,8.58
2022-09-27T14:02:56.671Z,8.70
2022-09-27T14:05:29.661Z,8.80
2022-09-27T14:08:00.157Z,8.86
2022-09-27T14:10:30.059Z,8.80
2022-09-27T14:13:01.097Z,8.86
2022-09-27T14:15:30.745Z,8.93
2022-09-27T14:18:02.171Z,8.85
2022-09-27T14:20:33.014Z,8.93
2022-09-27T14:23:03.134Z,8.74
2022-09-27T14:25:40.752Z,8.74
2022-09-27T14:28:23.871Z,8.77
2022-09-27T14:31:17.409Z,8.83
2022-09-27T14:34:08.033Z,8.80
2022-09-27T14:36:59.538Z,8.77
2022-09-27T14:39:37.748Z,8.76
2022-09-27T14:42:32.956Z,8.78
2022-09-27T14:45:05.899Z,8.73
2022-09-27T14:47:35.928Z,8.92
2022-09-27T14:50:18.874Z,8.82
2022-09-27T14:52:48.561Z,8.95
2022-09-27T14:55:19.044Z,9.03
2022-09-27T14:57:48.423Z,8.94
2022-09-27T15:00:20.636Z,9.21
2022-09-27T15:02:54.244Z,9.32
2022-09-27T15:05:26.426Z,9.12
2022-09-27T15:07:55.811Z,9.17
2022-09-27T15:10:27.838Z,9.19
2022-09-27T15:12:59.887Z,9.22
2022-09-27T15:15:31.179Z,9.31
2022-09-27T15:18:00.160Z,9.22
2022-09-27T15:20:34.944Z,9.40
2022-09-27T15:23:04.552Z,9.55
2022-09-27T15:25:35.500Z,9.61
2022-09-27T15:28:08.582Z,9.79
2022-09-27T15:30:38.302Z,9.91
2022-09-27T15:33:07.412Z,9.56
2022-09-27T15:35:37.381Z,9.88
2022-09-27T15:38:14.665Z,9.47
2022-09-27T15:41:06.775Z,9.86
2022-09-27T15:43:37.148Z,9.54
2022-09-27T15:46:07.263Z,9.58
2022-09-27T15:48:38.011Z,9.76
2022-09-27T15:51:39.513Z,9.98
2022-09-27T15:54:07.199Z,9.83
2022-09-27T15:56:36.517Z,9.90
2022-09-27T15:59:06.091Z,9.99
2022-09-27T16:01:33.910Z,9.99
2022-09-27T16:04:02.295Z,10.07
2022-09-27T16:06:31.341Z,10.60
2022-09-27T16:08:59.038Z,10.72
2022-09-27T16:11:26.711Z,10.72
2022-09-27T16:13:55.102Z,10.91
2022-09-27T16:16:26.346Z,10.69
2022-09-27T16:18:54.064Z,10.71
2022-09-27T16:21:21.785Z,10.67
2022-09-27T16:23:53.628Z,10.64
2022-09-27T16:26:21.493Z,10.56
2022-09-27T16:28:50.352Z,10.47
2022-09-27T16:31:20.908Z,10.30
2022-09-27T16:33:53.551Z,10.16
2022-09-27T16:36:21.277Z,10.06
2022-09-27T16:38:53.759Z,10.02
2022-09-27T16:41:24.284Z,9.88
2022-09-27T16:43:55.081Z,9.99
2022-09-27T16:46:25.026Z,9.83
2022-09-27T16:48:56.753Z,9.70
2022-09-27T16:51:43.634Z,9.71
2022-09-27T16:54:17.449Z,9.65
2022-09-27T16:56:50.239Z,9.64
2022-09-27T16:59:21.142Z,9.69
2022-09-27T17:01:49.380Z,9.64
2022-09-27T17:04:17.415Z,9.63
2022-09-27T17:06:45.249Z,9.80
2022-09-27T17:09:17.689Z,9.57
2022-09-27T17:11:45.478Z,9.59
2022-09-27T17:14:17.009Z,9.73
2022-09-27T17:16:45.569Z,9.55
2022-09-27T17:19:13.940Z,9.42
2022-09-27T17:21:44.214Z,9.18
2022-09-27T17:24:12.280Z,9.51
2022-09-27T17:26:42.067Z,9.51
2022-09-27T17:29:11.812Z,9.56
2022-09-27T17:31:41.284Z,9.41
2022-09-27T17:34:12.358Z,9.16
2022-09-27T17:36:48.233Z,9.13
2022-09-27T17:39:18.518Z,9.05
2022-09-27T17:41:48.738Z,9.05
2022-09-27T17:44:19.162Z,9.04
2022-09-27T17:47:07.775Z,8.94
2022-09-27T17:49:53.006Z,8.97
2022-09-27T17:52:21.033Z,8.95
2022-09-27T17:54:48.796Z,8.88
2022-09-27T17:57:20.829Z,9.05
2022-09-27T17:59:48.582Z,8.84
2022-09-27T18:02:16.445Z,8.83
2022-09-27T18:04:44.259Z,8.82
2022-09-27T18:07:15.069Z,8.71
2022-09-27T18:09:43.573Z,8.73
2022-09-27T18:12:13.712Z,8.61
2022-09-27T18:14:45.744Z,8.66
2022-09-27T18:17:13.664Z,8.59
2022-09-27T18:19:41.397Z,8.59
2022-09-27T18:22:09.134Z,8.57
2022-09-27T18:24:36.831Z,8.58
2022-09-27T18:27:04.655Z,8.56
2022-09-27T18:29:32.344Z,8.63
2022-09-27T18:32:02.201Z,8.54
2022-09-27T18:34:29.888Z,8.59
2022-09-27T18:36:57.551Z,8.49
2022-09-27T18:39:25.285Z,8.48
2022-09-27T18:41:53.618Z,8.35
2022-09-27T18:44:21.305Z,8.39
2022-09-27T18:46:49.907Z,8.41
2022-09-27T18:49:22.327Z,8.37
2022-09-27T18:51:53.447Z,8.31
2022-09-27T18:54:23.115Z,8.40
2022-09-27T18:56:52.232Z,8.27
2022-09-27T18:59:21.395Z,8.31
2022-09-27T19:01:50.985Z,8.26
2022-09-27T19:04:24.656Z,8.28
2022-09-27T19:06:53.154Z,8.20
2022-09-27T19:09:21.089Z,8.20
2022-09-27T19:11:50.990Z,8.09
2022-09-27T19:14:20.391Z,8.08
2022-09-27T19:16:48.504Z,8.01
2022-09-27T19:19:16.928Z,8.02
2022-09-27T19:21:46.744Z,8.09
2022-09-27T19:24:15.624Z,8.12
2022-09-27T19:26:43.310Z,8.10
2022-09-27T19:29:11.449Z,7.90
2022-09-27T19:31:39.218Z,7.94
2022-09-27T19:34:06.969Z,7.88
2022-09-27T19:36:34.635Z,7.65
2022-09-27T19:39:04.657Z,7.72
2022-09-27T19:41:32.450Z,7.64
2022-09-27T19:44:00.228Z,7.71
2022-09-27T19:46:27.986Z,7.72
2022-09-27T19:48:56.283Z,7.82
2022-09-27T19:51:25.577Z,7.90
2022-09-27T19:53:54.160Z,7.73
2022-09-27T19:56:24.022Z,8.02
2022-09-27T19:58:51.642Z,7.94
2022-09-27T20:01:20.974Z,7.92
2022-09-27T20:03:50.651Z,8.15
2022-09-27T20:06:19.837Z,8.38
2022-09-27T20:08:48.717Z,9.00
2022-09-27T20:11:17.553Z,9.56
2022-09-27T20:13:46.668Z,9.72
2022-09-27T20:16:17.018Z,9.28
2022-09-27T20:18:46.194Z,9.29
2022-09-27T20:21:14.515Z,9.41
2022-09-27T20:23:42.381Z,9.31
2022-09-27T20:26:12.997Z,8.88
2022-09-27T20:28:42.138Z,8.15
2022-09-27T20:31:12.496Z,8.36
2022-09-27T20:33:43.823Z,8.35
2022-09-27T20:36:13.373Z,8.36
2022-09-27T20:38:42.079Z,7.91
2022-09-27T20:41:10.444Z,8.00
2022-09-27T20:43:38.682Z,8.33
2022-09-27T20:46:08.214Z,8.60
2022-09-27T20:48:38.354Z,8.81
2022-09-27T20:51:06.971Z,8.52
2022-09-27T20:53:35.391Z,8.82
2022-09-27T20:56:03.704Z,8.94
2022-09-27T20:58:32.608Z,8.43
2022-09-27T21:01:07.395Z,9.04
2022-09-27T21:03:36.683Z,9.06
2022-09-27T21:06:05.072Z,9.31
2022-09-27T21:08:34.217Z,9.04
2022-09-27T21:11:07.515Z,8.81
2022-09-27T21:13:35.783Z,8.70
2022-09-27T21:16:05.314Z,8.28
2022-09-27T21:18:33.177Z,8.74
2022-09-27T21:21:04.270Z,8.46
2022-09-27T21:23:33.253Z,8.19
2022-09-27T21:26:06.574Z,8.24
2022-09-27T21:28:35.963Z,8.31
2022-09-27T21:31:05.680Z,8.61
2022-09-27T21:33:34.008Z,8.43
2022-09-27T21:36:04.683Z,8.26
2022-09-27T21:38:33.083Z,8.34
2022-09-27T21:41:03.193Z,8.74
2022-09-27T21:43:32.403Z,8.68
2022-09-27T21:46:04.664Z,8.99
2022-09-27T21:48:33.253Z,8.60
2022-09-27T21:51:07.011Z,8.89
2022-09-27T21:53:35.347Z,8.72
2022-09-27T21:56:03.879Z,8.54
2022-09-27T21:58:33.888Z,8.78
2022-09-27T22:01:08.140Z,8.64
2022-09-27T22:03:36.810Z,8.73
2022-09-27T22:06:06.835Z,8.85
2022-09-27T22:08:34.539Z,8.59
2022-09-27T22:11:02.176Z,8.74
2022-09-27T22:13:30.130Z,8.51
2022-09-27T22:16:02.675Z,8.49
2022-09-27T22:18:30.451Z,8.51
2022-09-27T22:21:02.594Z,8.81
2022-09-27T22:23:31.881Z,8.65
2022-09-27T22:26:00.178Z,8.77
2022-09-27T22:28:28.360Z,8.75
2022-09-27T22:30:56.092Z,8.31
2022-09-27T22:33:23.788Z,8.65
2022-09-27T22:35:51.484Z,8.59
2022-09-27T22:38:19.181Z,8.57
2022-09-27T22:40:54.674Z,8.80
2022-09-27T22:43:22.372Z,8.58
2022-09-27T22:45:50.014Z,8.73
2022-09-27T22:48:19.081Z,8.67
2022-09-27T22:50:46.979Z,8.56
2022-09-27T22:53:15.036Z,8.59
2022-09-27T22:55:42.737Z,8.57
2022-09-27T22:58:15.256Z,8.75
2022-09-27T23:00:45.272Z,8.96
2022-09-27T23:03:13.188Z,8.89
2022-09-27T23:05:41.058Z,9.20
2022-09-27T23:08:08.984Z,9.10
2022-09-27T23:10:37.782Z,9.00
2022-09-27T23:13:06.011Z,9.05
2022-09-27T23:15:35.213Z,8.82
2022-09-27T23:18:03.029Z,8.78
2022-09-27T23:20:30.709Z,8.63
2022-09-27T23:22:59.113Z,9.04
2022-09-27T23:25:26.945Z,9.06
2022-09-27T23:27:54.918Z,9.20
2022-09-27T23:30:26.673Z,8.89
2022-09-27T23:32:56.378Z,8.78
2022-09-27T23:35:28.148Z,8.94
2022-09-27T23:37:57.725Z,8.74
2022-09-27T23:40:25.652Z,8.86
2022-09-27T23:42:53.296Z,8.90
2022-09-27T23:45:20.986Z,8.60
2022-09-27T23:47:48.624Z,8.93
2022-09-27T23:50:17.795Z,9.32
2022-09-27T23:52:48.528Z,9.36
2022-09-27T23:55:16.195Z,9.36
2022-09-27T23:57:44.155Z,9.12
